Time,TemperatureF,DewpointF,PressureIn,WindDirection,WindDirectionDegrees,WindSpeedMPH,WindSpeedGustMPH,Humidity,HourlyPrecipIn,Conditions,Clouds,dailyrainin,SoftwareType,DateUTC
2013-04-26 00:01:00,22.5,7.1,30.01,East,89,2.0,3.0,51,0.00,CLR,,0.00,WeatherDisplay:10.37,2013-04-26 08:01:00,
2013-04-26 00:16:00,22.1,7.1,30.00,East,84,2.0,3.0,52,0.00,CLR,,0.00,WeatherDisplay:10.37,2013-04-26 08:16:00,
2013-04-26 00:32:00,21.8,6.8,30.00,East,88,2.0,4.0,52,0.00,CLR,,0.00,WeatherDisplay:10.37,2013-04-26 08:32:00,
2013-04-26 00:46:00,21.7,7.2,30.00,East,80,3.0,6.0,53,0.00,CLR,,0.00,WeatherDisplay:10.37,2013-04-26 08:46:00,
2013-04-26 01:01:00,21.9,7.3,29.99,East,84,5.0,5.0,53,0.00,CLR,,0.00,WeatherDisplay:10.37,2013-04-26 09:01:00,
2013-04-26 01:16:00,22.0,7.5,29.99,East,85,3.0,6.0,53,0.00,CLR,,0.00,WeatherDisplay:10.37,2013-04-26 09:16:00,
2013-04-26 01:32:00,21.8,7.7,29.98,East,86,3.0,6.0,54,0.00,CLR,,0.00,WeatherDisplay:10.37,2013-04-26 09:32:00,
2013-04-26 01:46:00,21.5,7.4,29.97,East,88,3.0,5.0,54,0.00,CLR,,0.00,WeatherDisplay:10.37,2013-04-26 09:46:00,
2013-04-26 02:01:00,21.3,7.6,29.97,East,85,3.0,6.0,55,0.00,CLR,,0.00,WeatherDisplay:10.37,2013-04-26 10:01:00,
2013-04-26 02:16:00,21.0,7.8,29.97,East,85,3.0,7.0,56,0.00,CLR,,0.00,WeatherDisplay:10.37,2013-04-26 10:16:00,
2013-04-26 02:32:00,20.8,7.9,29.96,East,89,2.0,5.0,57,0.00,CLR,,0.00,WeatherDisplay:10.37,2013-04-26 10:32:00,
2013-04-26 02:46:00,20.3,7.9,29.95,East,88,2.0,5.0,58,0.00,CLR,,0.00,WeatherDisplay:10.37,2013-04-26 10:46:00,
2013-04-26 03:01:00,20.0,7.6,29.95,ESE,111,2.0,4.0,58,0.00,CLR,,0.00,WeatherDisplay:10.37,2013-04-26 11:01:00,
2013-04-26 03:16:00,19.8,7.4,29.95,East,88,1.0,5.0,58,0.00,CLR,,0.00,WeatherDisplay:10.37,2013-04-26 11:16:00,
2013-04-26 03:32:00,19.6,7.2,29.95,East,87,2.0,4.0,58,0.00,CLR,,0.00,WeatherDisplay:10.37,2013-04-26 11:32:00,
2013-04-26 03:46:00,19.3,7.3,29.94,East,81,1.0,5.0,59,0.00,CLR,,0.00,WeatherDisplay:10.37,2013-04-26 11:46:00,
2013-04-26 04:01:00,19.0,7.0,29.93,East,87,2.0,4.0,59,0.00,CLR,,0.00,WeatherDisplay:10.37,2013-04-26 12:01:00,
2013-04-26 04:16:00,18.6,6.6,29.92,East,79,2.0,4.0,59,0.00,CLR,,0.00,WeatherDisplay:10.37,2013-04-26 12:16:00,
2013-04-26 04:32:00,18.3,6.8,29.92,East,79,2.0,5.0,60,0.00,CLR,,0.00,WeatherDisplay:10.37,2013-04-26 12:32:00,
2013-04-26 04:46:00,18.6,7.4,29.91,East,81,3.0,5.0,61,0.00,CLR,,0.00,WeatherDisplay:10.37,2013-04-26 12:46:00,
2013-04-26 05:01:00,18.4,7.2,29.91,East,95,0.0,4.0,61,0.00,CLR,,0.00,WeatherDisplay:10.37,2013-04-26 13:01:00,
2013-04-26 05:16:00,18.1,6.9,29.90,East,83,1.0,5.0,61,0.00,CLR,,0.00,WeatherDisplay:10.37,2013-04-26 13:16:00,
2013-04-26 05:32:00,17.0,5.9,29.90,East,80,3.0,5.0,61,0.00,CLR,,0.00,WeatherDisplay:10.37,2013-04-26 13:32:00,
2013-04-26 05:46:00,15.8,5.1,29.89,East,88,5.0,10.0,62,0.00,CLR,,0.00,WeatherDisplay:10.37,2013-04-26 13:46:00,
2013-04-26 06:01:00,15.7,5.6,29.89,ENE,73,3.0,9.0,64,0.00,CLR,,0.00,WeatherDisplay:10.37,2013-04-26 14:01:00,
2013-04-26 06:16:00,15.4,5.4,29.88,East,79,6.0,8.0,64,0.00,CLR,,0.00,WeatherDisplay:10.37,2013-04-26 14:16:00,
2013-04-26 06:32:00,14.9,5.6,29.88,ENE,78,5.0,8.0,66,0.00,CLR,,0.00,WeatherDisplay:10.37,2013-04-26 14:32:00,
2013-04-26 06:46:00,14.8,5.8,29.88,East,79,5.0,8.0,67,0.00,CLR,,0.00,WeatherDisplay:10.37,2013-04-26 14:46:00,
2013-04-26 07:01:00,14.9,6.2,29.88,East,82,5.0,8.0,68,0.00,CLR,,0.00,WeatherDisplay:10.37,2013-04-26 15:01:00,
2013-04-26 07:16:00,15.3,6.6,29.86,ENE,75,7.0,10.0,68,0.00,CLR,,0.00,WeatherDisplay:10.37,2013-04-26 15:16:00,
2013-04-26 07:32:00,15.7,7.3,29.86,ENE,74,6.0,10.0,69,0.00,CLR,,0.00,WeatherDisplay:10.37,2013-04-26 15:32:00,
2013-04-26 07:46:00,15.9,7.5,29.85,East,82,6.0,10.0,69,0.00,CLR,,0.00,WeatherDisplay:10.37,2013-04-26 15:46:00,
2013-04-26 08:01:00,16.6,8.2,29.85,East,85,5.0,9.0,69,0.00,CLR,,0.00,WeatherDisplay:10.37,2013-04-26 16:01:00,
2013-04-26 08:17:00,17.2,8.7,29.85,East,96,3.0,8.0,69,0.00,CLR,,0.00,WeatherDisplay:10.37,2013-04-26 16:17:00,
2013-04-26 08:32:00,17.6,8.8,29.84,East,81,7.0,12.0,68,0.00,CLR,,0.00,WeatherDisplay:10.37,2013-04-26 16:32:00,
2013-04-26 08:46:00,17.9,9.1,29.84,East,80,2.0,10.0,68,0.00,CLR,,0.00,WeatherDisplay:10.37,2013-04-26 16:46:00,
2013-04-26 09:01:00,18.6,9.5,29.83,East,90,2.0,8.0,67,0.00,CLR,,0.00,WeatherDisplay:10.37,2013-04-26 17:01:00,
2013-04-26 09:16:00,19.1,9.6,29.82,East,90,8.0,10.0,66,0.00,CLR,,0.00,WeatherDisplay:10.37,2013-04-26 17:16:00,
2013-04-26 09:32:00,19.3,9.5,29.81,East,85,6.0,12.0,65,0.00,CLR,,0.00,WeatherDisplay:10.37,2013-04-26 17:32:00,
2013-04-26 09:46:00,19.8,9.9,29.81,East,82,6.0,10.0,65,0.00,CLR,,0.00,WeatherDisplay:10.37,2013-04-26 17:46:00,
2013-04-26 10:01:00,20.2,10.0,29.80,East,96,3.0,9.0,64,0.00,CLR,,0.00,WeatherDisplay:10.37,2013-04-26 18:01:00,
2013-04-26 10:16:00,20.7,10.4,29.79,ESE,105,6.0,9.0,64,0.00,CLR,,0.00,WeatherDisplay:10.37,2013-04-26 18:16:00,
2013-04-26 10:32:00,21.3,11.0,29.79,East,101,3.0,8.0,64,0.00,CLR,,0.00,WeatherDisplay:10.37,2013-04-26 18:32:00,
2013-04-26 10:46:00,22.0,10.9,29.78,ESE,109,3.0,8.0,62,0.00,CLR,,0.00,WeatherDisplay:10.37,2013-04-26 18:46:00,
2013-04-26 11:01:00,22.8,11.3,29.78,South,185,5.0,8.0,61,0.00,CLR,,0.00,WeatherDisplay:10.37,2013-04-26 19:01:00,
2013-04-26 11:15:00,23.2,11.4,29.77,SSE,157,6.0,10.0,60,0.00,CLR,,0.00,WeatherDisplay:10.37,2013-04-26 19:15:00,
2013-04-26 11:30:00,23.4,11.2,29.77,SSE,160,3.0,10.0,59,0.00,CLR,,0.00,WeatherDisplay:10.37,2013-04-26 19:30:00,
2013-04-26 11:45:00,23.4,10.8,29.76,South,180,0.0,7.0,58,0.00,CLR,,0.00,WeatherDisplay:10.37,2013-04-26 19:45:00,
2013-04-26 12:00:00,23.8,11.2,29.75,SSW,196,3.0,7.0,58,0.00,CLR,,0.00,WeatherDisplay:10.37,2013-04-26 20:00:00,
2013-04-26 12:15:00,23.8,10.8,29.75,SSW,194,3.0,6.0,57,0.00,CLR,,0.00,WeatherDisplay:10.37,2013-04-26 20:15:00,
2013-04-26 12:30:00,24.8,11.7,29.74,SSW,209,1.0,7.0,57,0.00,CLR,,0.00,WeatherDisplay:10.37,2013-04-26 20:30:00,
2013-04-26 12:45:00,25.9,12.3,29.74,SW,220,2.0,8.0,56,0.00,CLR,,0.00,WeatherDisplay:10.37,2013-04-26 20:45:00,
2013-04-26 13:00:00,26.4,12.8,29.73,South,177,5.0,7.0,56,0.00,CLR,,0.00,WeatherDisplay:10.37,2013-04-26 21:00:00,
2013-04-26 13:14:00,26.2,12.6,29.72,WSW,257,5.0,8.0,56,0.00,CLR,,0.00,WeatherDisplay:10.37,2013-04-26 21:14:00,
2013-04-26 13:30:00,26.6,13.4,29.72,SSW,193,1.0,6.0,57,0.00,CLR,,0.00,WeatherDisplay:10.37,2013-04-26 21:30:00,
2013-04-26 13:44:00,26.7,13.5,29.71,WSW,238,3.0,7.0,57,0.00,CLR,,0.00,WeatherDisplay:10.37,2013-04-26 21:44:00,
2013-04-26 13:59:00,27.3,14.4,29.70,WSW,238,5.0,8.0,58,0.00,CLR,,0.00,WeatherDisplay:10.37,2013-04-26 21:59:00,
2013-04-26 14:14:00,27.5,14.7,29.70,SW,219,5.0,8.0,58,0.00,CLR,,0.00,WeatherDisplay:10.37,2013-04-26 22:14:00,
2013-04-26 14:30:00,28.2,15.3,29.69,SSW,206,3.0,7.0,58,0.00,CLR,,0.00,WeatherDisplay:10.37,2013-04-26 22:30:00,
2013-04-26 14:44:00,28.8,15.9,29.69,SW,230,6.0,8.0,58,0.00,CLR,,0.00,WeatherDisplay:10.37,2013-04-26 22:44:00,
2013-04-26 14:59:00,28.9,16.4,29.68,SW,233,6.0,10.0,59,0.00,CLR,,0.00,WeatherDisplay:10.37,2013-04-26 22:59:00,
2013-04-26 15:14:00,29.5,17.3,29.68,WSW,249,3.0,11.0,60,0.00,CLR,,0.00,WeatherDisplay:10.37,2013-04-26 23:14:00,
2013-04-26 15:29:00,30.1,17.1,29.67,West,275,6.0,9.0,58,0.00,CLR,,0.00,WeatherDisplay:10.37,2013-04-26 23:29:00,
2013-04-26 15:44:00,29.8,18.0,29.67,West,266,5.0,13.0,61,0.00,CLR,,0.00,WeatherDisplay:10.37,2013-04-26 23:44:00,
2013-04-26 16:14:00,30.3,19.6,29.66,WSW,246,6.0,12.0,64,0.00,CLR,,0.00,WeatherDisplay:10.37,2013-04-27 00:14:00,
2013-04-26 16:29:00,29.6,19.6,29.65,SW,233,3.0,8.0,66,0.00,CLR,,0.00,WeatherDisplay:10.37,2013-04-27 00:29:00,
2013-04-26 16:44:00,29.2,20.3,29.65,West,266,3.0,9.0,69,0.00,CLR,,0.00,WeatherDisplay:10.37,2013-04-27 00:44:00,
2013-04-26 16:59:00,30.2,21.6,29.65,SW,220,2.0,5.0,70,0.00,CLR,,0.00,WeatherDisplay:10.37,2013-04-27 00:59:00,
2013-04-26 17:14:00,30.3,21.4,29.65,WSW,252,0.0,8.0,69,0.00,CLR,,0.00,WeatherDisplay:10.37,2013-04-27 01:14:00,
2013-04-26 17:29:00,30.7,21.7,29.64,South,176,2.0,7.0,69,0.00,CLR,,0.00,WeatherDisplay:10.37,2013-04-27 01:29:00,
2013-04-26 17:44:00,30.2,21.2,29.65,SSE,162,0.0,10.0,69,0.00,CLR,,0.00,WeatherDisplay:10.37,2013-04-27 01:44:00,
2013-04-26 17:59:00,29.7,21.4,29.65,WSW,247,6.0,8.0,71,0.00,CLR,,0.00,WeatherDisplay:10.37,2013-04-27 01:59:00,
2013-04-26 18:14:00,29.5,21.9,29.65,WSW,254,2.0,10.0,73,0.00,CLR,,0.00,WeatherDisplay:10.37,2013-04-27 02:14:00,
2013-04-26 18:29:00,29.8,22.5,29.65,SW,230,5.0,7.0,74,0.00,CLR,,0.00,WeatherDisplay:10.37,2013-04-27 02:29:00,
2013-04-26 18:44:00,29.7,23.1,29.65,South,171,3.0,8.0,76,0.00,CLR,,0.00,WeatherDisplay:10.37,2013-04-27 02:44:00,
2013-04-26 18:59:00,29.4,23.4,29.65,SSW,193,1.0,8.0,78,0.00,CLR,,0.00,WeatherDisplay:10.37,2013-04-27 02:59:00,
2013-04-26 19:14:00,28.5,23.1,29.65,WSW,246,2.0,5.0,80,0.00,CLR,,0.00,WeatherDisplay:10.37,2013-04-27 03:14:00,
2013-04-26 19:29:00,28.6,23.8,29.65,SW,220,0.0,5.0,82,0.00,CLR,,0.00,WeatherDisplay:10.37,2013-04-27 03:29:00,
2013-04-26 19:44:00,28.7,23.6,29.65,WNW,285,1.0,5.0,81,0.00,CLR,,0.00,WeatherDisplay:10.37,2013-04-27 03:44:00,
2013-04-26 19:59:00,28.4,23.6,29.65,NW,304,0.0,0.0,82,0.00,CLR,,0.00,WeatherDisplay:10.37,2013-04-27 03:59:00,
2013-04-26 20:14:00,28.1,23.3,29.65,NW,313,0.0,2.0,82,0.00,CLR,,0.00,WeatherDisplay:10.37,2013-04-27 04:14:00,
2013-04-26 20:29:00,27.7,23.5,29.65,West,279,0.0,5.0,84,0.00,CLR,,0.00,WeatherDisplay:10.37,2013-04-27 04:29:00,
2013-04-26 20:44:00,27.4,23.5,29.65,South,172,0.0,0.0,85,0.00,CLR,,0.00,WeatherDisplay:10.37,2013-04-27 04:44:00,
2013-04-26 20:59:00,27.3,23.4,29.65,South,172,0.0,0.0,85,0.00,CLR,,0.00,WeatherDisplay:10.37,2013-04-27 04:59:00,
2013-04-26 21:14:00,27.2,23.3,29.66,WSW,244,0.0,5.0,85,0.00,CLR,,0.00,WeatherDisplay:10.37,2013-04-27 05:14:00,
2013-04-26 21:29:00,27.1,23.2,29.66,West,274,0.0,3.0,85,0.00,CLR,,0.00,WeatherDisplay:10.37,2013-04-27 05:29:00,
2013-04-26 21:44:00,27.0,23.4,29.66,West,275,0.0,0.0,86,0.00,CLR,,0.00,WeatherDisplay:10.37,2013-04-27 05:44:00,
2013-04-26 21:59:00,26.9,23.3,29.67,WSW,248,0.0,3.0,86,0.00,CLR,,0.00,WeatherDisplay:10.37,2013-04-27 05:59:00,
2013-04-26 22:14:00,26.8,23.2,29.67,WSW,257,1.0,3.0,86,0.00,CLR,,0.00,WeatherDisplay:10.37,2013-04-27 06:14:00,
2013-04-26 22:29:00,26.7,23.4,29.68,WSW,251,2.0,3.0,87,0.00,CLR,,0.00,WeatherDisplay:10.37,2013-04-27 06:29:00,
2013-04-26 22:43:00,26.5,23.4,29.68,WSW,257,2.0,4.0,88,0.00,CLR,,0.00,WeatherDisplay:10.37,2013-04-27 06:43:00,
2013-04-26 22:58:00,26.2,23.4,29.69,WSW,254,0.0,3.0,89,0.00,CLR,,0.00,WeatherDisplay:10.37,2013-04-27 06:58:00,
2013-04-26 23:13:00,26.0,23.5,29.69,WSW,237,0.0,1.0,90,0.00,CLR,,0.00,WeatherDisplay:10.37,2013-04-27 07:13:00,
2013-04-26 23:29:00,25.9,23.8,29.70,WSW,237,0.0,0.0,92,0.00,CLR,,0.00,WeatherDisplay:10.37,2013-04-27 07:29:00,
2013-04-26 23:43:00,25.7,23.7,29.70,WSW,237,0.0,0.0,92,0.00,CLR,,0.00,WeatherDisplay:10.37,2013-04-27 07:43:00,
2013-04-26 23:58:00,25.5,23.5,29.71,WSW,237,0.0,0.0,92,0.00,CLR,,0.00,WeatherDisplay:10.37,2013-04-27 07:58:00,